TAF Text Data
IDs:
Format:
Raw Decoded Include METAR

Data at: 0932 UTC 20 Sep 2019

KIAD 200852Z 00000KT 10SM SCT250 09/07 A3029 RMK AO2 SLP258 T00890072 55000

KIAD 200840Z 2009/2112 00000KT P6SM FEW250
  FM201300 22004KT P6SM SKC
  FM210000 18004KT P6SM SKC
  FM210800 00000KT P6SM SKC